Chicago, IL
9/2/2017


DISTANCE 2.5 KILOMETERS
FINISHERS 98 women
AVERAGE TIME 19:10

FIND RESULTS


Bib Name Sex Age City State Overall SexPl DivPl Time
244 Sara Creager F 29 Itasca IL 1 / 98 1 / 98 1 / 18 12:09
753 Sydney Bobo F 31 Chicago IL 2 / 98 2 / 98 1 / 33 12:21
225 Roxy Ledwa F 33 Joliet IL 3 / 98 3 / 98 2 / 33 12:42
197 Meagan Oneill F 35 Zionsville IN 4 / 98 4 / 98 3 / 33 12:45
208 Karen Grabowski F 41 Park Ridge IL 5 / 98 5 / 98 1 / 27 12:54
780 Melanie Glander F 29 Chicago IL 6 / 98 6 / 98 2 / 18 13:05
207 Azalea Lopez F 22 Berwyn IL 7 / 98 7 / 98 3 / 18 13:11
190 Lindsey Plass F 30 Chicago IL 8 / 98 8 / 98 4 / 33 13:16
237 Julie Bock F 35 Columbia City IN 9 / 98 9 / 98 5 / 33 13:20
750 Theresa Larsen F 42 Chicago IL 10 / 98 10 / 98 2 / 27 13:35
220 Jeanne Hogan F 49 Quincy MA 11 / 98 11 / 98 3 / 27 13:46
794 Jennifer Sorce F 33 Glen Ellyn IL 12 / 98 12 / 98 6 / 33 13:49
239 Jenna Diercks F 26 Plainfield IN 13 / 98 13 / 98 4 / 18 13:56
221 Colleen Jemmi F 29 Chicago IL 14 / 98 14 / 98 5 / 18 14:08
219 Erin Ding F 36 South Barrington IL 15 / 98 15 / 98 7 / 33 14:16
222 Maggie Pickering F 38 Chicago IL 16 / 98 16 / 98 8 / 33 14:18
779 Denise Funk F 25 Grayslake IL 17 / 98 17 / 98 6 / 18 14:22
245 Cathryn Macejik F 59 Bloomingdale IL 18 / 98 18 / 98 1 / 16 14:25
196 Stephanie Dewald F 44 Chicago IL 19 / 98 19 / 98 4 / 27 14:35
771 Sandra Marinellie F 54 Berwyn IL 20 / 98 20 / 98 2 / 16 14:35
229 Lyse Charette F 53 Chicago IL 21 / 98 21 / 98 3 / 16 14:43
773 Darcy Wood F 31 Chicago IL 22 / 98 22 / 98 9 / 33 14:58
242 Janna Howard F 31 Bartlett IL 23 / 98 23 / 98 10 / 33 15:03
782 Hannah Trivette F 37 Schererville IN 24 / 98 24 / 98 11 / 33 15:25
210 Diana Abbott F 38 Colorado Springs CO 25 / 98 25 / 98 12 / 33 15:28
227 Mindy McQuivey F 42 Lexington KY 26 / 98 26 / 98 5 / 27 15:30
243 Ashley Sapp F 32 Mahomet IL 27 / 98 27 / 98 13 / 33 15:34
745 Michelle Tovo F 43 Demotte IN 28 / 98 28 / 98 6 / 27 15:41
800 Allison Delestowicz F 32 Savoy IL 29 / 98 29 / 98 14 / 33 15:50
194 Jackie Papadakis F 29 Chicago IL 30 / 98 30 / 98 7 / 18 15:52
751 Cheryl Spataro F 37 Chicago IL 31 / 98 31 / 98 15 / 33 15:57
759 Michelle Orth F 39 Highland IN 32 / 98 32 / 98 16 / 33 15:59
791 Jody Nieman F 42 Palatine IL 33 / 98 33 / 98 7 / 27 16:24
781 Alison Shariatzadeh F 40 Palatine IL 34 / 98 34 / 98 8 / 27 16:24
204 Eva Salgado F 33 Oak Park IL 35 / 98 35 / 98 17 / 33 16:26
217 Jes Larsen F 33 Chicago IL 36 / 98 36 / 98 18 / 33 16:27
240 Kathy Kelly F 49 Chicago IL 37 / 98 37 / 98 9 / 27 16:29
765 Sue Zebleckis F 52 Bloomingdale IL 38 / 98 38 / 98 4 / 16 16:36
763 Stephanie Heidenreich F 41 Elgin IL 39 / 98 39 / 98 10 / 27 16:50
797 Morgan Trivette F 13 Schererville IN 40 / 98 40 / 98 1 / 2 16:56
777 Julie Whitney F 47 Dyer IN 41 / 98 41 / 98 11 / 27 17:01
248 Jodh Dyson F 42 Chicago IL 42 / 98 42 / 98 12 / 27 17:04
744 Theresa Borowski F 37 Des Plaines IL 43 / 98 43 / 98 19 / 33 17:05
755 Jennifer Syslo F 44 Chicago IL 44 / 98 44 / 98 13 / 27 17:05
774 Veronica Tovar F 41 Appleton WI 45 / 98 45 / 98 14 / 27 17:05
783 Magda Von Roth F 41 Chicago IL 46 / 98 46 / 98 15 / 27 17:08
749 Oluwapese Anderson F 35 Evanston IL 47 / 98 47 / 98 20 / 33 17:08
775 Kasandra Diggs F 40 South Holland IL 48 / 98 48 / 98 16 / 27 17:14
201 Ann Komer F 44 Chicago Heights IL 49 / 98 49 / 98 17 / 27 17:20
752 Jasmin Diaz F 37 Burbank IL 50 / 98 50 / 98 21 / 33 17:30
787 Jill Miller F 54 West Olive MI 51 / 98 51 / 98 5 / 16 17:34
235 Tammi Chavez F 46 New Lenox IL 52 / 98 52 / 98 18 / 27 17:39
215 Kimberly Chavez F 41 Chicago IL 53 / 98 53 / 98 19 / 27 17:40
786 Renee Wohlgemuth F 54 Wheatfield IN 54 / 98 54 / 98 6 / 16 17:41
769 Amanda Mok F 26 Chicago IL 55 / 98 55 / 98 8 / 18 17:43
789 Lynne Brenan F 68 Chicago IL 56 / 98 56 / 98 1 / 2 17:50
796 Colleen Faivre F 38 Sugar Grove IL 57 / 98 57 / 98 22 / 33 18:16
747 Jessica Urbina F 29 Schiller Park IL 58 / 98 58 / 98 9 / 18 18:48
228 Jo Anne Castillo F 52 Naperville IL 59 / 98 59 / 98 7 / 16 18:54
223 Martha Segura F 50 Chicago IL 60 / 98 60 / 98 8 / 16 19:00
793 Lori MacMillan-Ladd F 58 Manitou Beach MI 61 / 98 61 / 98 9 / 16 19:22
236 Emily Inman F 31 St. Charles MO 62 / 98 62 / 98 23 / 33 19:22
212 Renate Weber F 53 Homer Glen IL 63 / 98 63 / 98 10 / 16 19:26
226 Allison Marinellie F 28 Berwyn IL 64 / 98 64 / 98 10 / 18 19:28
760 Sara Florek F 26 Omaha NE 65 / 98 65 / 98 11 / 18 19:39
761 Rachel Florek F 55 Hastings NE 66 / 98 66 / 98 11 / 16 19:40
762 Elizabeth Kepner F 27 Fishers IN 67 / 98 67 / 98 12 / 18 19:55
206 Elizabeth Kort F 63 Evergreen Park IL 68 / 98 68 / 98 2 / 2 20:09
238 Sue Andersen F 57 Elgin IL 69 / 98 69 / 98 12 / 16 20:10
213 Rachel Story F 26 Chicago IL 70 / 98 70 / 98 13 / 18 20:11
214 Polina Zasheva F 26 Chicago IL 71 / 98 71 / 98 14 / 18 20:12
209 Megan Diaz F 34 Chicago IL 72 / 98 72 / 98 24 / 33 20:13
776 Mary Porrata F 53 Oak Park IL 73 / 98 73 / 98 13 / 16 20:50
205 Emily Potempa F 25 Elmhurst IL 74 / 98 74 / 98 15 / 18 21:05
234 Caroline Farrington F 22 Chicago IL 75 / 98 75 / 98 16 / 18 21:05
792 Hannah Trivette F 13 Schererville IN 76 / 98 76 / 98 2 / 2 21:25
192 Florence Ramos F 49 Chicago IL 77 / 98 77 / 98 20 / 27 21:37
788 Jayne Slager F 46 Homer Glen IL 78 / 98 78 / 98 21 / 27 21:51
756 Donna Pledger F 56 Chicago IL 79 / 98 79 / 98 14 / 16 22:03
790 Su Miller F 48 Grayslake IL 80 / 98 80 / 98 22 / 27 22:20
200 Gladys Williams F 44 Chicago IL 81 / 98 81 / 98 23 / 27 22:25
224 Kristy Hicks F 32 Wpafb OH 82 / 98 82 / 98 25 / 33 23:04
784 Mona Hornsby F 39 Dundee IL 83 / 98 83 / 98 26 / 33 23:16
778 Christi Adam F 39 Yorkville IL 84 / 98 84 / 98 27 / 33 23:20
203 Jen Centeno F 34 Chicago IL 85 / 98 85 / 98 28 / 33 23:32
202 Monica Martinez F 40 Chicago IL 86 / 98 86 / 98 24 / 27 24:19
746 Deb Hong F 36 Morton Grove IL 87 / 98 87 / 98 29 / 33 24:40
199 Kait Neibarger F 21 Marshall IL 88 / 98 88 / 98 17 / 18 25:40
785 Carissa Engelsman F 21 Worth IL 89 / 98 89 / 98 18 / 18 26:09
767 Aida Mendoza F 53 Chicago IL 90 / 98 90 / 98 15 / 16 26:44
748 Sherri James F 49 Chicago IL 91 / 98 91 / 98 25 / 27 28:42
216 Roshni Walia F 34 Mount Prospect IL 92 / 98 92 / 98 30 / 33 28:53
799 Barbette Johnson F 38 Chicago IL 93 / 98 93 / 98 31 / 33 29:17
766 Susan Valdes F 35 Chicago IL 94 / 98 94 / 98 32 / 33 29:56
758 Jackie Scott F 47 Chicago IL 95 / 98 95 / 98 26 / 27 30:12
193 Melissa Meyer F 32 Chicago IL 96 / 98 96 / 98 33 / 33 31:52
191 Julie Smolyansky F 42 Chicago IL 97 / 98 97 / 98 27 / 27 46:33
764 Cindy Filip F 56 Bloomingdale IL 98 / 98 98 / 98 16 / 16 56:51
1-98
Per Page: [50] [100] [500]